createdAt,value
2018-09-25T00:01:24.408Z,5.90
2018-09-25T00:03:57.962Z,5.90
2018-09-25T00:06:31.400Z,5.80
2018-09-25T00:09:04.783Z,5.80
2018-09-25T00:11:38.189Z,5.80
2018-09-25T00:14:12.000Z,5.80
2018-09-25T00:16:45.680Z,5.70
2018-09-25T00:19:19.346Z,5.80
2018-09-25T00:21:52.934Z,5.70
2018-09-25T00:24:26.438Z,5.70
2018-09-25T00:26:59.845Z,5.70
2018-09-25T00:29:33.306Z,5.60
2018-09-25T00:32:06.835Z,5.70
2018-09-25T00:34:40.659Z,5.60
2018-09-25T00:37:14.051Z,5.60
2018-09-25T00:39:47.862Z,5.60
2018-09-25T00:42:21.334Z,5.50
2018-09-25T00:44:55.017Z,5.50
2018-09-25T00:47:28.371Z,5.50
2018-09-25T00:50:01.818Z,5.50
2018-09-25T00:52:35.319Z,5.50
2018-09-25T00:55:08.739Z,5.50
2018-09-25T00:57:42.927Z,5.40
2018-09-25T01:00:16.470Z,5.40
2018-09-25T01:02:49.772Z,5.40
2018-09-25T01:05:23.163Z,5.40
2018-09-25T01:07:56.695Z,5.30
2018-09-25T01:10:30.489Z,5.30
2018-09-25T01:13:03.881Z,5.30
2018-09-25T01:15:37.434Z,5.30
2018-09-25T01:18:10.778Z,5.30
2018-09-25T01:20:44.355Z,5.30
2018-09-25T01:23:17.762Z,5.30
2018-09-25T01:25:51.765Z,5.20
2018-09-25T01:28:25.255Z,5.20
2018-09-25T01:30:58.692Z,5.20
2018-09-25T01:33:32.012Z,5.10
2018-09-25T01:36:05.516Z,5.20
2018-09-25T01:38:39.010Z,5.20
2018-09-25T01:41:13.041Z,5.10
2018-09-25T01:43:46.449Z,5.10
2018-09-25T01:46:19.826Z,5.10
2018-09-25T01:48:53.168Z,5.10
2018-09-25T01:51:26.685Z,5.10
2018-09-25T01:54:00.123Z,5.00
2018-09-25T01:56:33.495Z,5.00
2018-09-25T01:59:06.956Z,5.00
2018-09-25T02:01:40.296Z,5.00
2018-09-25T02:04:13.741Z,4.90
2018-09-25T02:06:47.150Z,4.90
2018-09-25T02:09:20.620Z,4.90
2018-09-25T02:11:54.044Z,5.00
2018-09-25T02:14:27.494Z,4.90
2018-09-25T02:17:01.187Z,4.90
2018-09-25T02:19:34.502Z,4.90
2018-09-25T02:22:07.854Z,4.90
2018-09-25T02:24:41.213Z,4.90
2018-09-25T02:27:14.609Z,4.90
2018-09-25T02:29:48.018Z,4.80
2018-09-25T02:32:21.441Z,4.80
2018-09-25T02:34:55.313Z,4.80
2018-09-25T02:37:28.722Z,4.80
2018-09-25T02:40:02.103Z,4.80
2018-09-25T02:42:35.584Z,4.80
2018-09-25T02:45:09.242Z,4.70
2018-09-25T02:47:43.012Z,4.70
2018-09-25T02:50:16.554Z,4.70
2018-09-25T02:52:50.027Z,4.70
2018-09-25T02:55:23.403Z,4.70
2018-09-25T02:57:56.738Z,4.70
2018-09-25T03:00:30.168Z,4.60
2018-09-25T03:03:03.637Z,4.60
2018-09-25T03:05:37.097Z,4.60
2018-09-25T03:08:10.489Z,4.60
2018-09-25T03:10:43.912Z,4.60
2018-09-25T03:13:17.328Z,4.50
2018-09-25T03:15:50.739Z,4.50
2018-09-25T03:18:24.083Z,4.50
2018-09-25T03:20:57.590Z,4.50
2018-09-25T03:23:30.960Z,4.50
2018-09-25T03:26:04.272Z,4.50
2018-09-25T03:28:37.695Z,4.40
2018-09-25T03:31:11.170Z,4.40
2018-09-25T03:33:44.766Z,4.40
2018-09-25T03:36:18.410Z,4.40
2018-09-25T03:38:51.826Z,4.40
2018-09-25T03:41:25.303Z,4.40
2018-09-25T03:43:58.683Z,4.40
2018-09-25T03:46:32.288Z,4.40
2018-09-25T03:49:05.845Z,4.40
2018-09-25T03:51:39.338Z,4.30
2018-09-25T03:54:12.688Z,4.40
2018-09-25T03:56:46.156Z,4.30
2018-09-25T03:59:19.526Z,4.30
2018-09-25T04:01:52.947Z,4.30
2018-09-25T04:04:26.251Z,4.30
2018-09-25T04:06:59.733Z,4.20
2018-09-25T04:09:33.124Z,4.20
2018-09-25T04:12:06.878Z,4.30
2018-09-25T04:14:40.203Z,4.20
2018-09-25T04:17:13.788Z,4.20
2018-09-25T04:19:47.313Z,4.30
2018-09-25T04:22:21.392Z,4.30
2018-09-25T04:24:55.029Z,4.20
2018-09-25T04:27:28.584Z,4.20
2018-09-25T04:30:02.222Z,4.30
2018-09-25T04:32:35.874Z,4.30
2018-09-25T04:35:09.517Z,4.30
2018-09-25T04:37:43.166Z,4.30
2018-09-25T04:40:16.542Z,4.30
2018-09-25T04:42:50.046Z,4.30
2018-09-25T04:45:23.738Z,4.30
2018-09-25T04:47:57.265Z,4.30
2018-09-25T04:50:30.530Z,4.30
2018-09-25T04:53:03.932Z,4.30
2018-09-25T04:55:37.267Z,4.30
2018-09-25T04:58:10.890Z,4.30
2018-09-25T05:00:44.276Z,4.30
2018-09-25T05:03:17.702Z,4.40
2018-09-25T05:05:51.090Z,4.40
2018-09-25T05:08:24.570Z,4.40
2018-09-25T05:10:57.950Z,4.40
2018-09-25T05:13:31.471Z,4.50
2018-09-25T05:16:04.925Z,4.50
2018-09-25T05:18:38.347Z,4.60
2018-09-25T05:21:11.784Z,4.60
2018-09-25T05:23:45.323Z,4.60
2018-09-25T05:26:18.622Z,4.70
2018-09-25T05:28:52.383Z,4.70
2018-09-25T05:31:25.894Z,4.80
2018-09-25T05:33:59.328Z,4.90
2018-09-25T05:36:32.770Z,4.90
2018-09-25T05:39:06.218Z,5.00
2018-09-25T05:41:39.770Z,5.10
2018-09-25T05:44:13.866Z,5.10
2018-09-25T05:46:53.894Z,5.30
2018-09-25T05:49:27.344Z,5.40
2018-09-25T05:52:01.146Z,6.30
2018-09-25T05:54:34.527Z,7.80
2018-09-25T05:57:08.095Z,9.30
2018-09-25T05:59:41.988Z,10.50
2018-09-25T06:02:15.650Z,11.40
2018-09-25T06:04:49.340Z,12.20
2018-09-25T06:07:22.937Z,12.50
2018-09-25T06:09:56.591Z,13.10
2018-09-25T06:12:30.247Z,13.60
2018-09-25T06:15:03.750Z,14.00
2018-09-25T06:17:37.259Z,14.20
2018-09-25T06:20:10.900Z,14.40
2018-09-25T06:22:44.289Z,14.50
2018-09-25T06:25:17.882Z,15.10
2018-09-25T06:27:51.543Z,15.30
2018-09-25T06:30:25.595Z,15.90
2018-09-25T06:32:59.492Z,15.50
2018-09-25T06:35:33.158Z,15.00
2018-09-25T06:38:06.774Z,15.40
2018-09-25T06:40:40.761Z,15.50
2018-09-25T06:43:14.298Z,15.40
2018-09-25T06:45:47.892Z,16.10
2018-09-25T06:48:21.369Z,16.60
2018-09-25T06:50:54.874Z,16.90
2018-09-25T06:53:28.543Z,16.80
2018-09-25T06:56:01.909Z,16.40
2018-09-25T06:58:35.364Z,16.40
2018-09-25T07:01:08.802Z,16.80
2018-09-25T07:03:42.286Z,16.80
2018-09-25T07:06:16.180Z,17.00
2018-09-25T07:08:49.804Z,16.80
2018-09-25T07:11:23.209Z,16.70
2018-09-25T07:13:56.563Z,16.80
2018-09-25T07:16:29.959Z,16.60
2018-09-25T07:19:03.348Z,16.40
2018-09-25T07:21:36.813Z,16.80
2018-09-25T07:24:10.245Z,16.80
2018-09-25T07:26:43.753Z,16.90
2018-09-25T07:29:17.477Z,17.20
2018-09-25T07:31:51.063Z,17.30
2018-09-25T07:34:24.912Z,17.40
2018-09-25T07:36:58.407Z,17.20
2018-09-25T07:39:37.498Z,17.50
2018-09-25T07:42:11.153Z,17.50
2018-09-25T07:44:44.812Z,17.60
2018-09-25T07:47:18.152Z,17.80
2018-09-25T07:49:52.332Z,18.10
2018-09-25T07:52:25.890Z,18.00
2018-09-25T07:54:59.396Z,18.00
2018-09-25T07:57:32.837Z,17.90
2018-09-25T08:00:06.232Z,17.50
2018-09-25T08:02:39.780Z,16.90
2018-09-25T08:05:13.732Z,16.30
2018-09-25T08:07:47.174Z,15.40
2018-09-25T08:10:20.722Z,14.40
2018-09-25T08:12:54.230Z,13.20
2018-09-25T08:15:27.596Z,12.60
2018-09-25T08:18:01.013Z,12.10
2018-09-25T08:20:34.590Z,11.50
2018-09-25T08:23:07.941Z,11.20
2018-09-25T08:25:41.654Z,11.00
2018-09-25T08:28:15.055Z,10.90
2018-09-25T08:30:48.497Z,10.80
2018-09-25T08:33:22.126Z,11.00
2018-09-25T08:35:55.712Z,11.10
2018-09-25T08:38:29.161Z,11.30
2018-09-25T08:41:02.748Z,11.40
2018-09-25T08:43:36.113Z,11.40
2018-09-25T08:46:09.634Z,11.50
2018-09-25T08:48:43.069Z,11.50
2018-09-25T08:51:16.470Z,11.60
2018-09-25T08:53:49.915Z,11.50
2018-09-25T08:56:23.328Z,11.30
2018-09-25T08:58:56.809Z,11.20
2018-09-25T09:01:30.369Z,11.00
2018-09-25T09:04:03.937Z,10.80
2018-09-25T09:06:37.530Z,10.60
2018-09-25T09:09:14.396Z,10.50
2018-09-25T09:11:48.342Z,10.40
2018-09-25T09:14:22.090Z,10.30
2018-09-25T09:16:55.566Z,10.30
2018-09-25T09:19:29.305Z,10.30
2018-09-25T09:22:02.653Z,10.30
2018-09-25T09:24:36.132Z,10.20
2018-09-25T09:27:09.480Z,10.20
2018-09-25T09:29:43.219Z,10.10
2018-09-25T09:32:16.737Z,10.10
2018-09-25T09:34:50.386Z,10.10
2018-09-25T09:37:23.841Z,10.10
2018-09-25T09:39:57.400Z,10.10
2018-09-25T09:42:31.068Z,10.20
2018-09-25T09:45:04.488Z,10.30
2018-09-25T09:47:37.882Z,10.30
2018-09-25T09:50:11.516Z,10.40
2018-09-25T09:52:45.011Z,10.40
2018-09-25T09:55:18.495Z,10.50
2018-09-25T09:57:51.826Z,10.40
2018-09-25T10:00:25.318Z,10.40
2018-09-25T10:02:58.761Z,10.50
2018-09-25T10:05:32.214Z,10.50
2018-09-25T10:08:06.103Z,10.70
2018-09-25T10:10:39.688Z,10.60
2018-09-25T10:13:13.086Z,10.70
2018-09-25T10:15:53.074Z,10.70
2018-09-25T10:18:26.418Z,10.70
2018-09-25T10:20:59.871Z,10.80
2018-09-25T10:23:33.710Z,10.90
2018-09-25T10:26:07.289Z,11.00
2018-09-25T10:28:40.698Z,11.10
2018-09-25T10:31:14.058Z,11.20
2018-09-25T10:33:47.501Z,11.20
2018-09-25T10:36:20.992Z,11.30
2018-09-25T10:38:54.260Z,11.30
2018-09-25T10:41:27.678Z,11.30
2018-09-25T10:44:01.127Z,11.30
2018-09-25T10:46:34.426Z,11.30
2018-09-25T10:49:08.013Z,11.20
2018-09-25T10:51:41.460Z,11.30
2018-09-25T10:54:15.151Z,11.20
2018-09-25T10:56:48.589Z,11.20
2018-09-25T10:59:22.024Z,11.20
2018-09-25T11:01:55.366Z,11.20
2018-09-25T11:04:28.879Z,11.30
2018-09-25T11:07:02.292Z,11.30
2018-09-25T11:09:35.729Z,11.30
2018-09-25T11:12:09.071Z,11.50
2018-09-25T11:14:42.702Z,11.50
2018-09-25T11:17:16.019Z,11.50
2018-09-25T11:19:49.714Z,11.50
2018-09-25T11:22:23.107Z,11.60
2018-09-25T11:24:56.566Z,11.70
2018-09-25T11:27:30.087Z,11.70
2018-09-25T11:30:03.433Z,11.60
2018-09-25T11:32:37.136Z,11.70
2018-09-25T11:35:10.804Z,11.60
2018-09-25T11:37:44.218Z,11.70
2018-09-25T11:40:17.632Z,11.70
2018-09-25T11:42:50.994Z,11.60
2018-09-25T11:45:24.347Z,11.60
2018-09-25T11:47:57.754Z,11.70
2018-09-25T11:50:31.375Z,11.80
2018-09-25T11:53:04.768Z,11.90
2018-09-25T11:55:38.299Z,11.80
2018-09-25T11:58:11.719Z,11.90
2018-09-25T12:00:45.497Z,12.00
2018-09-25T12:03:19.270Z,12.00
2018-09-25T12:05:52.761Z,12.00
2018-09-25T12:08:26.137Z,12.00
2018-09-25T12:10:59.676Z,12.10
2018-09-25T12:13:33.117Z,12.10
2018-09-25T12:16:06.620Z,12.20
2018-09-25T12:18:40.056Z,12.30
2018-09-25T12:21:13.489Z,12.30
2018-09-25T12:23:46.874Z,12.40
2018-09-25T12:26:20.556Z,12.50
2018-09-25T12:28:53.950Z,12.60
2018-09-25T12:31:27.332Z,13.10
2018-09-25T12:34:01.002Z,14.00
2018-09-25T12:36:34.401Z,14.80
2018-09-25T12:39:08.000Z,15.40
2018-09-25T12:41:41.655Z,16.10
2018-09-25T12:44:15.053Z,16.60
2018-09-25T12:46:48.670Z,16.60
2018-09-25T12:49:22.399Z,16.80
2018-09-25T12:51:55.947Z,17.00
2018-09-25T12:54:29.428Z,17.30
2018-09-25T12:57:03.075Z,17.50
2018-09-25T12:59:36.655Z,17.90
2018-09-25T13:02:10.166Z,17.70
2018-09-25T13:04:43.545Z,17.70
2018-09-25T13:07:17.005Z,18.10
2018-09-25T13:09:50.423Z,17.50
2018-09-25T13:12:23.815Z,17.60
2018-09-25T13:14:57.305Z,17.70
2018-09-25T13:17:30.769Z,17.60
2018-09-25T13:20:04.106Z,17.00
2018-09-25T13:22:37.909Z,16.30
2018-09-25T13:25:11.638Z,15.70
2018-09-25T13:27:45.116Z,15.30
2018-09-25T13:30:18.590Z,14.90
2018-09-25T13:32:51.919Z,14.60
2018-09-25T13:35:25.303Z,14.40
2018-09-25T13:37:58.786Z,14.10
2018-09-25T13:40:32.648Z,13.80
2018-09-25T13:43:06.049Z,13.60
2018-09-25T13:45:39.726Z,13.50
2018-09-25T13:48:13.455Z,13.30
2018-09-25T13:50:46.883Z,13.30
2018-09-25T13:53:20.487Z,13.20
2018-09-25T13:55:54.122Z,13.20
2018-09-25T13:58:28.163Z,13.20
2018-09-25T14:01:01.794Z,13.20
2018-09-25T14:03:35.451Z,13.10
2018-09-25T14:06:08.774Z,13.00
2018-09-25T14:08:42.567Z,13.00
2018-09-25T14:11:15.938Z,12.90
2018-09-25T14:13:49.644Z,12.90
2018-09-25T14:16:23.200Z,12.90
2018-09-25T14:18:56.931Z,12.80
2018-09-25T14:21:30.298Z,12.80
2018-09-25T14:24:03.641Z,12.80
2018-09-25T14:26:37.304Z,12.80
2018-09-25T14:29:10.777Z,12.70
2018-09-25T14:31:44.175Z,12.70
2018-09-25T14:34:18.274Z,12.70
2018-09-25T14:36:51.957Z,12.70
2018-09-25T14:39:25.478Z,12.70
2018-09-25T14:41:58.890Z,12.70
2018-09-25T14:44:32.316Z,12.60
2018-09-25T14:47:05.964Z,12.60
2018-09-25T14:49:39.658Z,12.60
2018-09-25T14:52:13.398Z,12.60
2018-09-25T14:54:47.330Z,12.50
2018-09-25T14:57:21.164Z,12.50
2018-09-25T14:59:54.659Z,12.40
2018-09-25T15:02:28.011Z,12.40
2018-09-25T15:05:02.353Z,12.40
2018-09-25T15:07:36.206Z,12.30
2018-09-25T15:10:10.480Z,12.30
2018-09-25T15:12:44.046Z,12.20
2018-09-25T15:15:17.478Z,12.20
2018-09-25T15:17:51.052Z,12.20
2018-09-25T15:20:25.043Z,12.20
2018-09-25T15:22:58.559Z,12.20
2018-09-25T15:25:32.309Z,12.20
2018-09-25T15:28:05.911Z,12.10
2018-09-25T15:30:39.619Z,12.10
2018-09-25T15:33:13.870Z,12.10
2018-09-25T15:35:47.540Z,12.00
2018-09-25T15:38:21.042Z,12.10
2018-09-25T15:40:54.830Z,12.00
2018-09-25T15:43:28.460Z,12.00
2018-09-25T15:46:01.928Z,12.00
2018-09-25T15:48:35.290Z,12.00
2018-09-25T15:51:08.701Z,12.00
2018-09-25T15:53:42.045Z,12.00
2018-09-25T15:56:15.694Z,11.90
2018-09-25T15:58:49.204Z,11.90
2018-09-25T16:01:29.708Z,11.90
2018-09-25T16:04:03.994Z,11.90
2018-09-25T16:06:37.717Z,12.00
2018-09-25T16:09:13.783Z,11.90
2018-09-25T16:11:47.699Z,11.80
2018-09-25T16:14:21.055Z,11.80
2018-09-25T16:16:54.556Z,11.70
2018-09-25T16:19:28.142Z,11.70
2018-09-25T16:22:01.755Z,11.70
2018-09-25T16:24:35.258Z,11.60
2018-09-25T16:27:08.901Z,11.60
2018-09-25T16:29:42.352Z,11.50
2018-09-25T16:32:15.746Z,11.50
2018-09-25T16:34:49.056Z,11.40
2018-09-25T16:37:22.530Z,11.40
2018-09-25T16:39:56.010Z,11.40
2018-09-25T16:42:29.475Z,11.40
2018-09-25T16:45:03.051Z,11.40
2018-09-25T16:47:36.582Z,11.30
2018-09-25T16:50:10.005Z,11.30
2018-09-25T16:52:43.372Z,11.30
2018-09-25T16:55:16.897Z,11.30
2018-09-25T16:57:50.288Z,11.30
2018-09-25T17:00:23.647Z,11.30
2018-09-25T17:02:57.461Z,11.30
2018-09-25T17:05:31.131Z,11.30
2018-09-25T17:08:04.638Z,11.20
2018-09-25T17:10:37.969Z,11.30
2018-09-25T17:13:11.507Z,11.30
2018-09-25T17:15:44.949Z,11.20
2018-09-25T17:18:19.315Z,11.30
2018-09-25T17:20:54.012Z,11.30
2018-09-25T17:23:27.820Z,11.30
2018-09-25T17:26:01.169Z,11.30
2018-09-25T17:28:34.714Z,11.30
2018-09-25T17:31:08.479Z,11.30
2018-09-25T17:33:42.396Z,11.30
2018-09-25T17:36:15.781Z,11.30
2018-09-25T17:38:49.258Z,11.30
2018-09-25T17:41:22.879Z,11.20
2018-09-25T17:43:56.502Z,11.20
2018-09-25T17:46:29.964Z,11.20
2018-09-25T17:49:03.531Z,11.20
2018-09-25T17:51:37.222Z,11.20
2018-09-25T17:54:10.606Z,11.20
2018-09-25T17:56:44.032Z,11.20
2018-09-25T17:59:17.530Z,11.20
2018-09-25T18:01:51.094Z,11.20
2018-09-25T18:04:24.744Z,11.20
2018-09-25T18:06:58.110Z,11.20
2018-09-25T18:09:31.761Z,11.20
2018-09-25T18:12:05.151Z,11.20
2018-09-25T18:14:38.504Z,11.20
2018-09-25T18:17:11.974Z,11.20
2018-09-25T18:19:45.674Z,11.10
2018-09-25T18:22:19.206Z,11.10
2018-09-25T18:24:52.737Z,11.10
2018-09-25T18:27:26.421Z,11.10
2018-09-25T18:29:59.838Z,11.00
2018-09-25T18:32:33.590Z,11.00
2018-09-25T18:35:07.120Z,11.00
2018-09-25T18:37:40.696Z,10.90
2018-09-25T18:40:14.088Z,10.90
2018-09-25T18:42:47.745Z,10.90
2018-09-25T18:45:21.171Z,10.90
2018-09-25T18:47:54.864Z,10.80
2018-09-25T18:50:28.387Z,10.80
2018-09-25T18:53:02.026Z,10.80
2018-09-25T18:55:35.401Z,10.70
2018-09-25T18:58:08.886Z,10.80
2018-09-25T19:00:42.323Z,10.70
2018-09-25T19:03:15.839Z,10.70
2018-09-25T19:05:49.210Z,10.70
2018-09-25T19:08:22.655Z,10.60
2018-09-25T19:10:56.274Z,10.60
2018-09-25T19:13:29.685Z,10.60
2018-09-25T19:16:03.136Z,10.50
2018-09-25T19:18:36.663Z,10.50
2018-09-25T19:21:10.174Z,10.60
2018-09-25T19:23:43.911Z,10.50
2018-09-25T19:26:17.481Z,10.50
2018-09-25T19:28:50.979Z,10.50
2018-09-25T19:31:24.337Z,10.50
2018-09-25T19:33:57.801Z,10.50
2018-09-25T19:36:31.512Z,10.50
2018-09-25T19:39:05.232Z,10.50
2018-09-25T19:41:38.905Z,10.40
2018-09-25T19:44:12.246Z,10.40
2018-09-25T19:46:45.677Z,10.40
2018-09-25T19:49:19.099Z,10.40
2018-09-25T19:51:52.553Z,10.40
2018-09-25T19:54:26.021Z,10.40
2018-09-25T19:56:59.480Z,10.40
2018-09-25T19:59:32.998Z,10.40
2018-09-25T20:02:06.561Z,10.40
2018-09-25T20:04:40.013Z,10.40
2018-09-25T20:07:13.539Z,10.30
2018-09-25T20:09:47.157Z,10.30
2018-09-25T20:12:20.557Z,10.30
2018-09-25T20:14:54.036Z,10.30
2018-09-25T20:17:27.393Z,10.30
2018-09-25T20:20:00.897Z,10.30
2018-09-25T20:22:34.263Z,10.30
2018-09-25T20:25:07.699Z,10.30
2018-09-25T20:27:41.124Z,10.30
2018-09-25T20:30:14.543Z,10.30
2018-09-25T20:32:48.259Z,10.30
2018-09-25T20:35:21.607Z,10.30
2018-09-25T20:37:55.181Z,10.30
2018-09-25T20:40:28.680Z,10.30
2018-09-25T20:43:02.207Z,10.30
2018-09-25T20:45:35.701Z,10.20
2018-09-25T20:48:09.106Z,10.20
2018-09-25T20:50:42.630Z,10.30
2018-09-25T20:53:16.444Z,10.30
2018-09-25T20:55:50.088Z,10.20
2018-09-25T20:58:23.762Z,10.20
2018-09-25T21:00:57.188Z,10.20
2018-09-25T21:03:30.647Z,10.20
2018-09-25T21:06:03.993Z,10.20
2018-09-25T21:08:37.518Z,10.30
2018-09-25T21:11:11.105Z,10.20
2018-09-25T21:13:44.526Z,10.20
2018-09-25T21:16:17.928Z,10.20
2018-09-25T21:18:51.370Z,10.20
2018-09-25T21:21:24.898Z,10.20
2018-09-25T21:23:58.208Z,10.20
2018-09-25T21:26:31.676Z,10.30
2018-09-25T21:29:05.141Z,10.20
2018-09-25T21:31:38.589Z,10.20
2018-09-25T21:34:12.188Z,10.20
2018-09-25T21:36:45.611Z,10.20
2018-09-25T21:39:18.948Z,10.20
2018-09-25T21:41:52.714Z,10.20
2018-09-25T21:44:26.208Z,10.20
2018-09-25T21:46:59.531Z,10.30
2018-09-25T21:49:33.188Z,10.30
2018-09-25T21:52:06.810Z,10.40
2018-09-25T21:54:40.414Z,10.30
2018-09-25T21:57:14.003Z,10.40
2018-09-25T21:59:47.259Z,10.40
2018-09-25T22:02:20.800Z,10.40
2018-09-25T22:04:54.138Z,10.40
2018-09-25T22:07:27.737Z,10.40
2018-09-25T22:10:01.155Z,10.40
2018-09-25T22:12:34.530Z,10.40
2018-09-25T22:15:07.916Z,10.30
2018-09-25T22:17:41.290Z,10.30
2018-09-25T22:20:14.863Z,10.30
2018-09-25T22:22:48.228Z,10.20
2018-09-25T22:25:21.759Z,10.20
2018-09-25T22:27:55.010Z,10.20
2018-09-25T22:30:28.485Z,10.20
2018-09-25T22:33:02.010Z,10.20
2018-09-25T22:35:35.424Z,10.20
2018-09-25T22:38:08.885Z,10.10
2018-09-25T22:40:42.235Z,10.10
2018-09-25T22:43:15.756Z,10.20
2018-09-25T22:45:49.177Z,10.20
2018-09-25T22:48:22.615Z,10.20
2018-09-25T22:50:56.226Z,10.20
2018-09-25T22:53:29.609Z,10.20
2018-09-25T22:56:03.255Z,10.30
2018-09-25T22:58:36.670Z,10.30
2018-09-25T23:01:10.068Z,10.30
2018-09-25T23:03:43.682Z,10.30
2018-09-25T23:06:17.451Z,10.30
2018-09-25T23:08:50.746Z,10.40
2018-09-25T23:11:24.356Z,10.40
2018-09-25T23:13:57.845Z,10.50
2018-09-25T23:16:31.306Z,10.50
2018-09-25T23:19:04.731Z,10.60
2018-09-25T23:21:38.195Z,10.60
2018-09-25T23:24:11.636Z,10.60
2018-09-25T23:26:45.085Z,10.60
2018-09-25T23:29:18.634Z,10.60
2018-09-25T23:31:51.974Z,10.60
2018-09-25T23:34:25.467Z,10.60
2018-09-25T23:36:58.999Z,10.60
2018-09-25T23:39:39.038Z,10.60
2018-09-25T23:42:29.723Z,10.70
2018-09-25T23:45:03.302Z,10.70
2018-09-25T23:47:36.831Z,10.70
2018-09-25T23:50:20.491Z,10.70
2018-09-25T23:52:52.982Z,10.70
2018-09-25T23:55:28.405Z,10.70
2018-09-25T23:58:02.476Z,10.70
